sensor_id;sensor_type;location;lat;lon;timestamp;pressure;altitude;pressure_sealevel;temperature;humidity
17362;BME280;8798;51.938;4.348;2023-06-05T00:00:51;101233.53;;;14.69;59.46
17362;BME280;8798;51.938;4.348;2023-06-05T00:03:21;101233.00;;;14.66;59.71
17362;BME280;8798;51.938;4.348;2023-06-05T00:05:51;101237.06;;;14.61;59.67
17362;BME280;8798;51.938;4.348;2023-06-05T00:08:19;101223.38;;;14.55;60.07
17362;BME280;8798;51.938;4.348;2023-06-05T00:10:47;101226.38;;;14.52;59.93
17362;BME280;8798;51.938;4.348;2023-06-05T00:13:15;101232.28;;;14.47;60.21
17362;BME280;8798;51.938;4.348;2023-06-05T00:15:42;101245.81;;;14.47;59.90
17362;BME280;8798;51.938;4.348;2023-06-05T00:18:11;101256.78;;;14.46;60.37
17362;BME280;8798;51.938;4.348;2023-06-05T00:20:40;101250.19;;;14.40;60.15
17362;BME280;8798;51.938;4.348;2023-06-05T00:23:08;101235.50;;;14.34;60.52
17362;BME280;8798;51.938;4.348;2023-06-05T00:25:37;101239.69;;;14.29;60.59
17362;BME280;8798;51.938;4.348;2023-06-05T00:28:05;101237.31;;;14.26;60.54
17362;BME280;8798;51.938;4.348;2023-06-05T00:30:33;101243.22;;;14.21;60.89
17362;BME280;8798;51.938;4.348;2023-06-05T00:33:02;101227.69;;;14.15;61.06
17362;BME280;8798;51.938;4.348;2023-06-05T00:35:31;101241.34;;;14.13;61.03
17362;BME280;8798;51.938;4.348;2023-06-05T00:38:00;101255.69;;;14.14;61.01
17362;BME280;8798;51.938;4.348;2023-06-05T00:40:28;101267.53;;;14.13;60.95
17362;BME280;8798;51.938;4.348;2023-06-05T00:42:56;101266.34;;;14.07;61.21
17362;BME280;8798;51.938;4.348;2023-06-05T00:45:24;101264.81;;;14.05;61.38
17362;BME280;8798;51.938;4.348;2023-06-05T00:47:52;101274.09;;;14.02;61.27
17362;BME280;8798;51.938;4.348;2023-06-05T00:50:20;101261.22;;;13.96;61.75
17362;BME280;8798;51.938;4.348;2023-06-05T00:52:49;101262.41;;;13.93;61.77
17362;BME280;8798;51.938;4.348;2023-06-05T00:55:19;101279.44;;;13.94;61.59
17362;BME280;8798;51.938;4.348;2023-06-05T00:57:47;101319.63;;;13.97;61.96
17362;BME280;8798;51.938;4.348;2023-06-05T01:00:15;101331.31;;;13.97;61.85
17362;BME280;8798;51.938;4.348;2023-06-05T01:02:42;101349.34;;;13.97;62.36
17362;BME280;8798;51.938;4.348;2023-06-05T01:05:11;101353.06;;;13.96;62.10
17362;BME280;8798;51.938;4.348;2023-06-05T01:07:39;101375.50;;;13.96;62.16
17362;BME280;8798;51.938;4.348;2023-06-05T01:10:08;101379.38;;;13.94;62.24
17362;BME280;8798;51.938;4.348;2023-06-05T01:12:41;101369.06;;;13.89;62.45
17362;BME280;8798;51.938;4.348;2023-06-05T01:15:11;101379.19;;;13.87;62.84
17362;BME280;8798;51.938;4.348;2023-06-05T01:17:40;101396.25;;;13.88;62.62
17362;BME280;8798;51.938;4.348;2023-06-05T01:20:10;101400.97;;;13.86;62.74
17362;BME280;8798;51.938;4.348;2023-06-05T01:22:38;101418.84;;;13.87;62.43
17362;BME280;8798;51.938;4.348;2023-06-05T01:25:08;101421.72;;;13.85;62.77
17362;BME280;8798;51.938;4.348;2023-06-05T01:27:42;101424.06;;;13.80;62.63
17362;BME280;8798;51.938;4.348;2023-06-05T01:30:15;101416.25;;;13.77;62.89
17362;BME280;8798;51.938;4.348;2023-06-05T01:32:50;101429.09;;;13.75;63.10
17362;BME280;8798;51.938;4.348;2023-06-05T01:35:22;101427.53;;;13.72;62.91
17362;BME280;8798;51.938;4.348;2023-06-05T01:37:56;101422.63;;;13.68;63.42
17362;BME280;8798;51.938;4.348;2023-06-05T01:40:27;101431.88;;;13.65;62.94
17362;BME280;8798;51.938;4.348;2023-06-05T01:42:56;101434.72;;;13.64;63.70
17362;BME280;8798;51.938;4.348;2023-06-05T01:45:24;101438.59;;;13.61;63.71
17362;BME280;8798;51.938;4.348;2023-06-05T01:47:52;101439.91;;;13.57;63.30
17362;BME280;8798;51.938;4.348;2023-06-05T01:50:21;101437.38;;;13.55;63.44
17362;BME280;8798;51.938;4.348;2023-06-05T01:52:49;101445.63;;;13.54;63.31
17362;BME280;8798;51.938;4.348;2023-06-05T01:55:20;101452.16;;;13.51;63.52
17362;BME280;8798;51.938;4.348;2023-06-05T01:57:52;101450.63;;;13.49;63.87
17362;BME280;8798;51.938;4.348;2023-06-05T02:00:20;101463.44;;;13.47;63.69
17362;BME280;8798;51.938;4.348;2023-06-05T02:02:49;101463.59;;;13.45;63.51
17362;BME280;8798;51.938;4.348;2023-06-05T02:05:17;101472.69;;;13.44;64.37
17362;BME280;8798;51.938;4.348;2023-06-05T02:07:48;101471.16;;;13.42;64.48
17362;BME280;8798;51.938;4.348;2023-06-05T02:10:21;101476.88;;;13.39;64.46
17362;BME280;8798;51.938;4.348;2023-06-05T02:12:52;101472.75;;;13.34;64.49
17362;BME280;8798;51.938;4.348;2023-06-05T02:15:19;101465.84;;;13.32;64.54
17362;BME280;8798;51.938;4.348;2023-06-05T02:17:48;101473.41;;;13.28;64.48
17362;BME280;8798;51.938;4.348;2023-06-05T02:20:23;101475.38;;;13.26;64.46
17362;BME280;8798;51.938;4.348;2023-06-05T02:22:52;101474.81;;;13.23;64.78
17362;BME280;8798;51.938;4.348;2023-06-05T02:25:21;101476.84;;;13.21;64.55
17362;BME280;8798;51.938;4.348;2023-06-05T02:27:54;101491.16;;;13.21;64.49
17362;BME280;8798;51.938;4.348;2023-06-05T02:30:22;101483.38;;;13.18;65.11
17362;BME280;8798;51.938;4.348;2023-06-05T02:32:51;101480.31;;;13.13;64.62
17362;BME280;8798;51.938;4.348;2023-06-05T02:35:23;101482.31;;;13.11;64.82
17362;BME280;8798;51.938;4.348;2023-06-05T02:37:51;101482.56;;;13.08;65.23
17362;BME280;8798;51.938;4.348;2023-06-05T02:40:19;101490.00;;;13.06;64.98
17362;BME280;8798;51.938;4.348;2023-06-05T02:42:47;101482.19;;;13.03;65.12
17362;BME280;8798;51.938;4.348;2023-06-05T02:45:16;101499.38;;;13.02;65.52
17362;BME280;8798;51.938;4.348;2023-06-05T02:47:44;101491.75;;;12.97;64.85
17362;BME280;8798;51.938;4.348;2023-06-05T02:50:12;101494.59;;;12.96;65.73
17362;BME280;8798;51.938;4.348;2023-06-05T02:52:40;101486.09;;;12.90;65.42
17362;BME280;8798;51.938;4.348;2023-06-05T02:55:08;101486.28;;;12.89;65.16
17362;BME280;8798;51.938;4.348;2023-06-05T02:57:36;101495.66;;;12.85;65.96
17362;BME280;8798;51.938;4.348;2023-06-05T03:00:09;101483.47;;;12.81;65.82
17362;BME280;8798;51.938;4.348;2023-06-05T03:02:42;101487.31;;;12.78;65.77
17362;BME280;8798;51.938;4.348;2023-06-05T03:05:16;101512.28;;;12.80;66.27
17362;BME280;8798;51.938;4.348;2023-06-05T03:07:52;101520.38;;;12.80;65.93
17362;BME280;8798;51.938;4.348;2023-06-05T03:10:20;101525.06;;;12.78;65.95
17362;BME280;8798;51.938;4.348;2023-06-05T03:12:48;101528.75;;;12.77;66.30
17362;BME280;8798;51.938;4.348;2023-06-05T03:15:16;101534.28;;;12.76;66.04
17362;BME280;8798;51.938;4.348;2023-06-05T03:17:46;101539.97;;;12.73;66.17
17362;BME280;8798;51.938;4.348;2023-06-05T03:20:17;101533.75;;;12.72;66.50
17362;BME280;8798;51.938;4.348;2023-06-05T03:22:45;101532.50;;;12.66;66.25
17362;BME280;8798;51.938;4.348;2023-06-05T03:25:13;101538.88;;;12.65;66.66
17362;BME280;8798;51.938;4.348;2023-06-05T03:27:41;101546.13;;;12.65;66.92
17362;BME280;8798;51.938;4.348;2023-06-05T03:30:11;101555.22;;;12.64;66.80
17362;BME280;8798;51.938;4.348;2023-06-05T03:32:43;101554.50;;;12.62;66.76
17362;BME280;8798;51.938;4.348;2023-06-05T03:35:12;101562.72;;;12.60;66.66
17362;BME280;8798;51.938;4.348;2023-06-05T03:37:40;101558.47;;;12.58;66.54
17362;BME280;8798;51.938;4.348;2023-06-05T03:40:09;101557.78;;;12.56;67.19
17362;BME280;8798;51.938;4.348;2023-06-05T03:42:39;101571.25;;;12.56;67.04
17362;BME280;8798;51.938;4.348;2023-06-05T03:45:07;101575.97;;;12.54;67.30
17362;BME280;8798;51.938;4.348;2023-06-05T03:47:36;101580.47;;;12.53;67.31
17362;BME280;8798;51.938;4.348;2023-06-05T03:50:05;101596.66;;;12.53;67.16
17362;BME280;8798;51.938;4.348;2023-06-05T03:52:34;101609.16;;;12.54;67.39
17362;BME280;8798;51.938;4.348;2023-06-05T03:55:06;101614.53;;;12.54;67.14
17362;BME280;8798;51.938;4.348;2023-06-05T03:57:36;101641.19;;;12.57;67.13
17362;BME280;8798;51.938;4.348;2023-06-05T04:00:05;101645.75;;;12.57;67.14
17362;BME280;8798;51.938;4.348;2023-06-05T04:02:36;101650.28;;;12.56;67.58
17362;BME280;8798;51.938;4.348;2023-06-05T04:05:05;101669.84;;;12.58;67.53
17362;BME280;8798;51.938;4.348;2023-06-05T04:07:34;101689.28;;;12.62;68.16
17362;BME280;8798;51.938;4.348;2023-06-05T04:10:02;101698.50;;;12.59;67.79
17362;BME280;8798;51.938;4.348;2023-06-05T04:12:31;101702.03;;;12.60;67.96
17362;BME280;8798;51.938;4.348;2023-06-05T04:14:58;101718.09;;;12.61;67.74
17362;BME280;8798;51.938;4.348;2023-06-05T04:17:26;101729.72;;;12.62;67.95
17362;BME280;8798;51.938;4.348;2023-06-05T04:19:54;101739.34;;;12.64;67.93
17362;BME280;8798;51.938;4.348;2023-06-05T04:22:22;101780.22;;;12.69;68.17
17362;BME280;8798;51.938;4.348;2023-06-05T04:24:51;101782.06;;;12.69;68.01
17362;BME280;8798;51.938;4.348;2023-06-05T04:27:19;101782.91;;;12.69;68.25
17362;BME280;8798;51.938;4.348;2023-06-05T04:29:47;101793.69;;;12.69;68.17
17362;BME280;8798;51.938;4.348;2023-06-05T04:32:17;101798.25;;;12.69;68.18
17362;BME280;8798;51.938;4.348;2023-06-05T04:34:45;101804.59;;;12.68;68.37
17362;BME280;8798;51.938;4.348;2023-06-05T04:37:13;101823.22;;;12.71;68.13
17362;BME280;8798;51.938;4.348;2023-06-05T04:39:40;101854.28;;;12.75;68.15
17362;BME280;8798;51.938;4.348;2023-06-05T04:42:11;101871.03;;;12.79;68.43
17362;BME280;8798;51.938;4.348;2023-06-05T04:44:41;101875.44;;;12.80;68.44
17362;BME280;8798;51.938;4.348;2023-06-05T04:47:09;101886.22;;;12.80;68.76
17362;BME280;8798;51.938;4.348;2023-06-05T04:49:37;101897.72;;;12.82;68.63
17362;BME280;8798;51.938;4.348;2023-06-05T04:52:05;101918.28;;;12.83;69.00
17362;BME280;8798;51.938;4.348;2023-06-05T04:54:33;101929.66;;;12.86;68.99
17362;BME280;8798;51.938;4.348;2023-06-05T04:57:01;101953.66;;;12.89;68.69
17362;BME280;8798;51.938;4.348;2023-06-05T04:59:31;101978.34;;;12.95;69.09
17362;BME280;8798;51.938;4.348;2023-06-05T05:01:59;101997.66;;;13.00;69.38
17362;BME280;8798;51.938;4.348;2023-06-05T05:04:27;102010.19;;;13.01;68.94
17362;BME280;8798;51.938;4.348;2023-06-05T05:06:55;102015.56;;;13.01;68.71
17362;BME280;8798;51.938;4.348;2023-06-05T05:09:27;102007.59;;;12.99;69.20
17362;BME280;8798;51.938;4.348;2023-06-05T05:11:55;102020.09;;;13.00;69.69
17362;BME280;8798;51.938;4.348;2023-06-05T05:14:24;102023.66;;;13.01;69.62
17362;BME280;8798;51.938;4.348;2023-06-05T05:16:54;102034.28;;;13.02;69.15
17362;BME280;8798;51.938;4.348;2023-06-05T05:19:22;102046.66;;;13.05;69.17
17362;BME280;8798;51.938;4.348;2023-06-05T05:21:50;102082.88;;;13.12;69.76
17362;BME280;8798;51.938;4.348;2023-06-05T05:24:18;102107.75;;;13.16;69.61
17362;BME280;8798;51.938;4.348;2023-06-05T05:26:46;102134.19;;;13.22;69.41
17362;BME280;8798;51.938;4.348;2023-06-05T05:29:14;102142.88;;;13.25;69.55
17362;BME280;8798;51.938;4.348;2023-06-05T05:31:43;102151.69;;;13.27;69.20
17362;BME280;8798;51.938;4.348;2023-06-05T05:34:12;102165.19;;;13.27;69.47
17362;BME280;8798;51.938;4.348;2023-06-05T05:36:40;102178.44;;;13.30;69.51
17362;BME280;8798;51.938;4.348;2023-06-05T05:39:09;102193.34;;;13.34;69.42
17362;BME280;8798;51.938;4.348;2023-06-05T05:41:37;102223.22;;;13.43;69.63
17362;BME280;8798;51.938;4.348;2023-06-05T05:44:04;102263.03;;;13.50;69.60
17362;BME280;8798;51.938;4.348;2023-06-05T05:46:33;102280.81;;;13.53;69.93
17362;BME280;8798;51.938;4.348;2023-06-05T05:49:01;102307.97;;;13.61;70.13
17362;BME280;8798;51.938;4.348;2023-06-05T05:51:30;102329.16;;;13.66;70.17
17362;BME280;8798;51.938;4.348;2023-06-05T05:53:58;102356.34;;;13.74;70.25
17362;BME280;8798;51.938;4.348;2023-06-05T05:56:25;102395.22;;;13.83;69.66
17362;BME280;8798;51.938;4.348;2023-06-05T05:58:53;102419.97;;;13.88;70.08
17362;BME280;8798;51.938;4.348;2023-06-05T06:01:21;102449.88;;;13.96;70.28
17362;BME280;8798;51.938;4.348;2023-06-05T06:03:49;102512.41;;;14.12;69.83
17362;BME280;8798;51.938;4.348;2023-06-05T06:06:18;102558.25;;;14.24;70.00
17362;BME280;8798;51.938;4.348;2023-06-05T06:08:48;102616.28;;;14.40;70.11
17362;BME280;8798;51.938;4.348;2023-06-05T06:11:16;102677.19;;;14.56;70.19
17362;BME280;8798;51.938;4.348;2023-06-05T06:13:44;102742.38;;;14.74;70.09
17362;BME280;8798;51.938;4.348;2023-06-05T06:16:12;102800.59;;;14.89;70.21
17362;BME280;8798;51.938;4.348;2023-06-05T06:18:40;102857.97;;;15.04;70.14
17362;BME280;8798;51.938;4.348;2023-06-05T06:21:08;102923.31;;;15.20;70.19
17362;BME280;8798;51.938;4.348;2023-06-05T06:23:36;102961.06;;;15.33;69.98
17362;BME280;8798;51.938;4.348;2023-06-05T06:26:05;102981.19;;;15.40;69.98
17362;BME280;8798;51.938;4.348;2023-06-05T06:28:33;103019.81;;;15.54;69.94
17362;BME280;8798;51.938;4.348;2023-06-05T06:31:01;103047.84;;;15.64;69.64
17362;BME280;8798;51.938;4.348;2023-06-05T06:33:29;103062.75;;;15.69;69.68
17362;BME280;8798;51.938;4.348;2023-06-05T06:35:57;103054.59;;;15.69;69.56
17362;BME280;8798;51.938;4.348;2023-06-05T06:38:27;103041.91;;;15.70;69.46
17362;BME280;8798;51.938;4.348;2023-06-05T06:40:57;103020.34;;;15.68;69.66
17362;BME280;8798;51.938;4.348;2023-06-05T06:43:26;103004.22;;;15.67;69.28
17362;BME280;8798;51.938;4.348;2023-06-05T06:45:54;102974.69;;;15.64;69.27
17362;BME280;8798;51.938;4.348;2023-06-05T06:48:22;102979.81;;;15.67;69.06
17362;BME280;8798;51.938;4.348;2023-06-05T06:50:50;102985.00;;;15.70;69.05
17362;BME280;8798;51.938;4.348;2023-06-05T06:53:18;102964.28;;;15.69;68.83
17362;BME280;8798;51.938;4.348;2023-06-05T06:55:46;102955.31;;;15.68;68.84
17362;BME280;8798;51.938;4.348;2023-06-05T06:58:14;102942.75;;;15.67;68.91
17362;BME280;8798;51.938;4.348;2023-06-05T07:00:44;102938.09;;;15.69;68.85
17362;BME280;8798;51.938;4.348;2023-06-05T07:03:13;102926.28;;;15.71;68.64
17362;BME280;8798;51.938;4.348;2023-06-05T07:05:42;102911.84;;;15.70;68.64
17362;BME280;8798;51.938;4.348;2023-06-05T07:08:10;102920.56;;;15.74;68.48
17362;BME280;8798;51.938;4.348;2023-06-05T07:10:39;102940.72;;;15.81;68.47
17362;BME280;8798;51.938;4.348;2023-06-05T07:13:07;102961.88;;;15.87;68.37
17362;BME280;8798;51.938;4.348;2023-06-05T07:15:35;102943.03;;;15.85;68.40
17362;BME280;8798;51.938;4.348;2023-06-05T07:18:04;102927.75;;;15.84;68.50
17362;BME280;8798;51.938;4.348;2023-06-05T07:20:32;102929.34;;;15.87;68.27
17362;BME280;8798;51.938;4.348;2023-06-05T07:23:00;102921.19;;;15.87;68.41
17362;BME280;8798;51.938;4.348;2023-06-05T07:25:27;102941.34;;;15.94;68.19
17362;BME280;8798;51.938;4.348;2023-06-05T07:27:55;102938.38;;;15.97;67.72
17362;BME280;8798;51.938;4.348;2023-06-05T07:30:26;102947.97;;;16.01;67.79
17362;BME280;8798;51.938;4.348;2023-06-05T07:32:54;102945.25;;;16.01;67.94
17362;BME280;8798;51.938;4.348;2023-06-05T07:35:24;102920.97;;;16.00;67.68
17362;BME280;8798;51.938;4.348;2023-06-05T07:37:52;102909.28;;;15.99;67.62
17362;BME280;8798;51.938;4.348;2023-06-05T07:40:20;102900.28;;;15.99;67.80
17362;BME280;8798;51.938;4.348;2023-06-05T07:42:47;102904.47;;;16.03;67.46
17362;BME280;8798;51.938;4.348;2023-06-05T07:45:15;102931.75;;;16.11;67.53
17362;BME280;8798;51.938;4.348;2023-06-05T07:47:43;102956.47;;;16.18;67.47
17362;BME280;8798;51.938;4.348;2023-06-05T07:50:11;102952.63;;;16.20;67.44
17362;BME280;8798;51.938;4.348;2023-06-05T07:52:41;102930.19;;;16.18;67.36
17362;BME280;8798;51.938;4.348;2023-06-05T07:55:09;102920.34;;;16.17;67.32
17362;BME280;8798;51.938;4.348;2023-06-05T07:57:37;102916.63;;;16.18;67.24
17362;BME280;8798;51.938;4.348;2023-06-05T08:00:06;102936.63;;;16.27;66.95
17362;BME280;8798;51.938;4.348;2023-06-05T08:02:37;102966.66;;;16.35;66.90
17362;BME280;8798;51.938;4.348;2023-06-05T08:05:06;102976.09;;;16.41;66.79
17362;BME280;8798;51.938;4.348;2023-06-05T08:07:34;102975.69;;;16.45;67.01
17362;BME280;8798;51.938;4.348;2023-06-05T08:10:05;102985.41;;;16.48;66.62
17362;BME280;8798;51.938;4.348;2023-06-05T08:12:33;102978.97;;;16.49;66.64
17362;BME280;8798;51.938;4.348;2023-06-05T08:15:01;102987.72;;;16.52;66.65
17362;BME280;8798;51.938;4.348;2023-06-05T08:17:29;102992.56;;;16.59;66.58
17362;BME280;8798;51.938;4.348;2023-06-05T08:19:57;103014.59;;;16.65;66.50
17362;BME280;8798;51.938;4.348;2023-06-05T08:22:24;103025.06;;;16.70;66.17
17362;BME280;8798;51.938;4.348;2023-06-05T08:24:52;103007.03;;;16.69;66.28
17362;BME280;8798;51.938;4.348;2023-06-05T08:27:23;103015.78;;;16.72;66.35
17362;BME280;8798;51.938;4.348;2023-06-05T08:29:51;103032.41;;;16.79;66.29
17362;BME280;8798;51.938;4.348;2023-06-05T08:32:19;103066.72;;;16.90;65.79
17362;BME280;8798;51.938;4.348;2023-06-05T08:34:48;103086.72;;;16.98;65.78
17362;BME280;8798;51.938;4.348;2023-06-05T08:37:16;103104.19;;;17.06;65.94
17362;BME280;8798;51.938;4.348;2023-06-05T08:39:44;103109.38;;;17.09;65.58
17362;BME280;8798;51.938;4.348;2023-06-05T08:42:13;103118.81;;;17.14;65.64
17362;BME280;8798;51.938;4.348;2023-06-05T08:44:46;103122.09;;;17.18;65.69
17362;BME280;8798;51.938;4.348;2023-06-05T08:47:28;103122.53;;;17.23;65.30
17362;BME280;8798;51.938;4.348;2023-06-05T08:49:56;103125.84;;;17.27;65.10
17362;BME280;8798;51.938;4.348;2023-06-05T08:52:25;103128.28;;;17.30;65.21
17362;BME280;8798;51.938;4.348;2023-06-05T08:54:57;103101.25;;;17.28;64.82
17362;BME280;8798;51.938;4.348;2023-06-05T08:57:26;103117.13;;;17.33;64.47
17362;BME280;8798;51.938;4.348;2023-06-05T08:59:56;103137.19;;;17.41;64.86
17362;BME280;8798;51.938;4.348;2023-06-05T09:02:25;103124.31;;;17.44;65.02
17362;BME280;8798;51.938;4.348;2023-06-05T09:04:53;103152.66;;;17.51;64.66
17362;BME280;8798;51.938;4.348;2023-06-05T09:07:23;103167.25;;;17.59;64.31
17362;BME280;8798;51.938;4.348;2023-06-05T09:09:51;103189.13;;;17.68;64.66
17362;BME280;8798;51.938;4.348;2023-06-05T09:12:19;103199.47;;;17.74;64.27
17362;BME280;8798;51.938;4.348;2023-06-05T09:14:47;103214.25;;;17.81;64.17
17362;BME280;8798;51.938;4.348;2023-06-05T09:17:21;103234.44;;;17.88;64.31
17362;BME280;8798;51.938;4.348;2023-06-05T09:19:49;103242.19;;;17.93;63.98
17362;BME280;8798;51.938;4.348;2023-06-05T09:22:32;103255.94;;;18.01;63.56
17362;BME280;8798;51.938;4.348;2023-06-05T09:25:00;103258.38;;;18.04;63.66
17362;BME280;8798;51.938;4.348;2023-06-05T09:27:28;103262.38;;;18.10;63.70
17362;BME280;8798;51.938;4.348;2023-06-05T09:30:02;103274.41;;;18.17;63.32
17362;BME280;8798;51.938;4.348;2023-06-05T09:32:32;103275.00;;;18.20;63.38
17362;BME280;8798;51.938;4.348;2023-06-05T09:35:00;103266.53;;;18.23;63.03
17362;BME280;8798;51.938;4.348;2023-06-05T09:37:33;103283.16;;;18.30;62.72
17362;BME280;8798;51.938;4.348;2023-06-05T09:40:03;103287.31;;;18.34;62.89
17362;BME280;8798;51.938;4.348;2023-06-05T09:42:34;103285.00;;;18.39;62.88
17362;BME280;8798;51.938;4.348;2023-06-05T09:45:02;103315.13;;;18.47;62.80
17362;BME280;8798;51.938;4.348;2023-06-05T09:47:32;103311.81;;;18.54;62.32
17362;BME280;8798;51.938;4.348;2023-06-05T09:50:21;103318.69;;;18.58;62.28
17362;BME280;8798;51.938;4.348;2023-06-05T09:52:51;103342.06;;;18.70;62.14
17362;BME280;8798;51.938;4.348;2023-06-05T09:55:20;103355.00;;;18.78;61.92
17362;BME280;8798;51.938;4.348;2023-06-05T09:57:49;103351.13;;;18.80;61.96
17362;BME280;8798;51.938;4.348;2023-06-05T10:00:18;103362.44;;;18.85;61.68
17362;BME280;8798;51.938;4.348;2023-06-05T10:02:49;103384.22;;;18.95;61.76
17362;BME280;8798;51.938;4.348;2023-06-05T10:05:20;103402.44;;;19.04;61.31
17362;BME280;8798;51.938;4.348;2023-06-05T10:07:49;103411.03;;;19.09;61.62
17362;BME280;8798;51.938;4.348;2023-06-05T10:10:21;103409.72;;;19.13;61.43
17362;BME280;8798;51.938;4.348;2023-06-05T10:12:49;103418.19;;;19.20;61.29
17362;BME280;8798;51.938;4.348;2023-06-05T10:15:23;103404.44;;;19.22;60.84
17362;BME280;8798;51.938;4.348;2023-06-05T10:17:53;103381.91;;;19.20;60.92
17362;BME280;8798;51.938;4.348;2023-06-05T10:20:22;103367.13;;;19.22;60.68
17362;BME280;8798;51.938;4.348;2023-06-05T10:22:50;103358.81;;;19.24;60.63
17362;BME280;8798;51.938;4.348;2023-06-05T10:25:19;103374.44;;;19.31;60.45
17362;BME280;8798;51.938;4.348;2023-06-05T10:27:56;103393.63;;;19.40;60.29
17362;BME280;8798;51.938;4.348;2023-06-05T10:30:59;103401.19;;;19.46;60.22
17362;BME280;8798;51.938;4.348;2023-06-05T10:33:46;103389.13;;;19.48;60.08
17362;BME280;8798;51.938;4.348;2023-06-05T10:36:26;103397.47;;;19.57;60.37
17362;BME280;8798;51.938;4.348;2023-06-05T10:39:08;103400.59;;;19.62;59.95
17362;BME280;8798;51.938;4.348;2023-06-05T10:41:36;103403.72;;;19.67;59.79
17362;BME280;8798;51.938;4.348;2023-06-05T10:44:04;103387.25;;;19.68;59.52
17362;BME280;8798;51.938;4.348;2023-06-05T10:46:33;103402.00;;;19.75;59.75
17362;BME280;8798;51.938;4.348;2023-06-05T10:49:13;103413.19;;;19.82;59.46
17362;BME280;8798;51.938;4.348;2023-06-05T10:51:43;103428.66;;;19.91;59.44
17362;BME280;8798;51.938;4.348;2023-06-05T10:54:12;103451.31;;;20.02;59.41
17362;BME280;8798;51.938;4.348;2023-06-05T10:56:56;103438.38;;;20.04;59.03
17362;BME280;8798;51.938;4.348;2023-06-05T10:59:26;103421.84;;;20.05;58.81
17362;BME280;8798;51.938;4.348;2023-06-05T11:02:22;103378.06;;;19.97;58.75
17362;BME280;8798;51.938;4.348;2023-06-05T11:05:11;103358.84;;;19.98;58.72
17362;BME280;8798;51.938;4.348;2023-06-05T11:07:39;103357.50;;;20.03;58.54
17362;BME280;8798;51.938;4.348;2023-06-05T11:10:09;103355.16;;;20.08;58.29
17362;BME280;8798;51.938;4.348;2023-06-05T11:13:01;103376.94;;;20.17;57.95
17362;BME280;8798;51.938;4.348;2023-06-05T11:15:40;103375.63;;;20.22;57.81
17362;BME280;8798;51.938;4.348;2023-06-05T11:18:32;103374.03;;;20.29;57.80
17362;BME280;8798;51.938;4.348;2023-06-05T11:21:02;103372.72;;;20.33;57.77
17362;BME280;8798;51.938;4.348;2023-06-05T11:23:30;103395.47;;;20.41;57.49
17362;BME280;8798;51.938;4.348;2023-06-05T11:29:11;103367.84;;;20.45;57.34
17362;BME280;8798;51.938;4.348;2023-06-05T11:31:40;103373.56;;;20.51;57.29
17362;BME280;8798;51.938;4.348;2023-06-05T11:34:11;103377.75;;;20.55;57.18
17362;BME280;8798;51.938;4.348;2023-06-05T11:36:41;103335.34;;;20.51;56.96
17362;BME280;8798;51.938;4.348;2023-06-05T11:39:10;103305.75;;;20.47;56.93
17362;BME280;8798;51.938;4.348;2023-06-05T11:41:45;103308.03;;;20.51;56.68
17362;BME280;8798;51.938;4.348;2023-06-05T11:44:14;103303.25;;;20.53;56.78
17362;BME280;8798;51.938;4.348;2023-06-05T11:46:43;103305.56;;;20.58;57.02
17362;BME280;8798;51.938;4.348;2023-06-05T11:49:23;103294.47;;;20.59;56.88
17362;BME280;8798;51.938;4.348;2023-06-05T11:51:53;103274.50;;;20.59;56.75
17362;BME280;8798;51.938;4.348;2023-06-05T11:54:29;103272.31;;;20.63;56.75
17362;BME280;8798;51.938;4.348;2023-06-05T11:57:01;103282.59;;;20.69;56.54
17362;BME280;8798;51.938;4.348;2023-06-05T11:59:36;103262.47;;;20.70;56.61
17362;BME280;8798;51.938;4.348;2023-06-05T12:02:05;103244.50;;;20.67;56.70
17362;BME280;8798;51.938;4.348;2023-06-05T12:04:33;103253.09;;;20.72;56.48
17362;BME280;8798;51.938;4.348;2023-06-05T12:07:03;103307.00;;;20.88;56.69
17362;BME280;8798;51.938;4.348;2023-06-05T12:09:31;103329.47;;;21.00;56.45
17362;BME280;8798;51.938;4.348;2023-06-05T12:12:07;103303.13;;;20.99;56.21
17362;BME280;8798;51.938;4.348;2023-06-05T12:14:36;103311.88;;;21.02;56.41
17362;BME280;8798;51.938;4.348;2023-06-05T12:17:10;103317.56;;;21.09;56.23
17362;BME280;8798;51.938;4.348;2023-06-05T12:19:38;103351.13;;;21.19;56.12
17362;BME280;8798;51.938;4.348;2023-06-05T12:22:08;103389.69;;;21.34;55.91
17362;BME280;8798;51.938;4.348;2023-06-05T12:24:37;103398.13;;;21.41;55.80
17362;BME280;8798;51.938;4.348;2023-06-05T12:27:05;103414.59;;;21.49;55.90
17362;BME280;8798;51.938;4.348;2023-06-05T12:29:37;103398.00;;;21.51;55.69
17362;BME280;8798;51.938;4.348;2023-06-05T12:32:19;103392.41;;;21.52;55.53
17362;BME280;8798;51.938;4.348;2023-06-05T12:34:48;103395.34;;;21.59;55.38
17362;BME280;8798;51.938;4.348;2023-06-05T12:37:26;103405.63;;;21.65;55.41
17362;BME280;8798;51.938;4.348;2023-06-05T12:39:59;103399.69;;;21.69;55.61
17362;BME280;8798;51.938;4.348;2023-06-05T12:42:27;103434.81;;;21.82;54.72
17362;BME280;8798;51.938;4.348;2023-06-05T12:44:55;103433.47;;;21.86;54.83
17362;BME280;8798;51.938;4.348;2023-06-05T12:47:23;103456.09;;;21.97;55.21
17362;BME280;8798;51.938;4.348;2023-06-05T12:49:51;103480.63;;;22.06;55.23
17362;BME280;8798;51.938;4.348;2023-06-05T12:52:19;103481.84;;;22.12;55.11
17362;BME280;8798;51.938;4.348;2023-06-05T12:54:54;103557.00;;;22.36;55.00
17362;BME280;8798;51.938;4.348;2023-06-05T12:57:23;103535.06;;;22.36;54.72
17362;BME280;8798;51.938;4.348;2023-06-05T12:59:53;103514.88;;;22.37;54.17
17362;BME280;8798;51.938;4.348;2023-06-05T13:02:22;103502.72;;;22.39;54.03
17362;BME280;8798;51.938;4.348;2023-06-05T13:04:51;103514.59;;;22.48;54.54
17362;BME280;8798;51.938;4.348;2023-06-05T13:07:19;103542.72;;;22.58;53.89
17362;BME280;8798;51.938;4.348;2023-06-05T13:09:48;103595.53;;;22.76;53.81
17362;BME280;8798;51.938;4.348;2023-06-05T13:12:20;103588.50;;;22.82;54.08
17362;BME280;8798;51.938;4.348;2023-06-05T13:14:47;103580.28;;;22.82;53.90
17362;BME280;8798;51.938;4.348;2023-06-05T13:17:15;103555.47;;;22.84;53.98